Aérodrome :
LOGIN :

S'inscrire | Disclaimer

   EN    FR    IT 

 










Légende :    VFR   VFR Marginal   IFR   IFR Intensif   IFR Très Intensif
Visi : 
Plafond : 
>= 8 km
>= 3000ft
5 à 8 km
1000 à 3000 ft
1500m à 5 km
500 à 1000 ft
800 à 1500m
200 à 500 ft
< 800m
< 200 ft
Symboles :   Orages  Brouillard  Fortes neiges  Fortes précipitations  Vent > 20 kt
SIGMETs :   Divers  Orages  Givrage  Turbulence  Onde Orograph.  Cendres Volcan.







- Altitude de l'aérodrome : 86 ft


LERT - Rota Navy

DERNIER METAR :
  • 191200Z 10022KT CAVOK 33/18 Q1014 NOSIG

METARs EXPIRÉS :
  • 191100Z 11019KT 070V140 CAVOK 33/18 Q1015 NOSIG
  • 191000Z 10019KT CAVOK 31/18 Q1015 NOSIG

TAF TAF LERT
Valide du 19 à 12h jusqu'au 19 à 21h UTC


191100Z 1912/1921 12012KT CAVOK
PROB40
TEMPO 1912/1921 12020G30KT
Pas de NOTAMs connus pour ce terrain.



MET'MAP, la Météo Aéronautique d'un coup d'oeil ! - Copyright ORBIFLY Décembre 2007 - Disclaimer

ORBIFLY MET'MAP TEAM :

Programmation & Développement : Alexandra Zaïnal
Conception & Développement : Baudouin d'Aumeries
Co-Programmation & Développement : Marc-Olivier Méhu
Soutien technique & logistique : Manuel Goepfert

Contact : metmap@orbifly.com




SOURCES & CREDITS :

   NOAA